Flight Track Log - Related Links

Times and Time Zones

All times are in EST time to prevent confusion due to time zone crossing. See the HA312 flight status page for this flight to view local times or setup timezone preferences in your user account.

Time Position Orientation Groundspeed Altitude Reporting Facility
EST Latitude Longitude Course Direction KTS MPH feet Rate Location/Type
Mon 09:34:10 PM 49.1833 -123.2333 334° Northwest 120 138 1,700  Level Vancouver Center
Mon 09:35:10 PM 49.1833 -123.2833 270° West 120 138 3,000 1,150 Climbing Vancouver Center
Mon 09:36:10 PM 49.2000 -123.3167 307° West 130 150 4,000 1,200 Climbing Vancouver Center
Mon 09:37:10 PM 49.2500 -123.3333 348° North 140 161 5,400 1,300 Climbing Vancouver Center
Mon 09:38:00 PM 49.5102 -123.4935 327° Northwest  Level FlightAware Approximate
Mon 09:38:10 PM 49.2833 -123.3333 360° North 140 161 6,600  Level Vancouver Center
Mon 09:39:00 PM 49.5665 -123.5415 334° Northwest  Level FlightAware Approximate
Mon 09:39:10 PM 49.3333 -123.3333 360° North 150 173 7,800  Level Vancouver Center
Mon 09:40:10 PM 49.3667 -123.3333 360° North 150 173 8,800 1,100 Climbing Vancouver Center
Mon 09:41:10 PM 49.4167 -123.3167 12° North 160 184 10,000 1,200 Climbing Vancouver Center
Mon 09:42:10 PM 49.4500 -123.3167 360° North 160 184 11,200 1,050 Climbing Vancouver Center
Mon 09:43:10 PM 49.5000 -123.2833 23° Northeast 170 196 12,100 950 Climbing Vancouver Center
Mon 09:44:10 PM 49.5500 -123.3167 337° Northwest 170 196 13,100 1,000 Climbing Vancouver Center
Mon 09:45:10 PM 49.5833 -123.3333 342° North 160 184 14,100 1,050 Climbing Vancouver Center
Mon 09:46:10 PM 49.6333 -123.3667 337° Northwest 170 196 15,200 1,050 Climbing Vancouver Center
Mon 09:47:10 PM 49.6833 -123.3833 348° North 170 196 16,200 950 Climbing Vancouver Center
Mon 09:48:10 PM 49.7167 -123.4167 327° Northwest 170 196 17,100 950 Climbing Vancouver Center
Mon 09:49:10 PM 49.7667 -123.4333 348° North 180 207 18,100 850 Climbing Vancouver Center
Mon 09:50:10 PM 49.8167 -123.4667 337° Northwest 180 207 18,800 750 Climbing Vancouver Center
Mon 09:51:10 PM 49.8667 -123.5167 327° Northwest 180 207 19,600 600 Climbing Vancouver Center
Mon 09:52:10 PM 49.9000 -123.5333 342° North 190 219 20,000 200 Climbing Vancouver Center
Mon 09:53:10 PM 49.9667 -123.5667 342° North 210 242 20,000  Level Vancouver Center
Mon 09:54:10 PM 50.0167 -123.6167 327° Northwest 230 265 20,000  Level Vancouver Center
Mon 09:55:10 PM 50.0833 -123.6500 342° North 230 265 20,000  Level Vancouver Center
Mon 09:56:10 PM 50.1333 -123.6667 348° North 230 265 20,000  Level Vancouver Center
Mon 09:57:10 PM 50.2000 -123.7167 334° Northwest 230 265 20,000  Level Vancouver Center
Mon 09:58:10 PM 50.2667 -123.7500 342° North 230 265 20,000  Level Vancouver Center
Mon 09:59:10 PM 50.3167 -123.8000 327° Northwest 230 265 20,000  Level Vancouver Center
Mon 10:00:10 PM 50.3833 -123.8167 351° North 240 276 20,000  Level Vancouver Center
Mon 10:01:10 PM 50.4333 -123.8833 320° Northwest 240 276 20,000  Level Vancouver Center
Mon 10:02:10 PM 50.5000 -123.9000 351° North 240 276 20,000  Level Vancouver Center
Mon 10:03:10 PM 50.5667 -123.9500 335° Northwest 240 276 20,000  Level Vancouver Center
Mon 10:04:10 PM 50.6167 -123.9833 337° Northwest 230 265 20,000  Level Vancouver Center
Mon 10:05:10 PM 50.6833 -124.0333 335° Northwest 240 276 20,000  Level Vancouver Center
Mon 10:06:10 PM 50.7500 -124.0667 342° North 230 265 20,000  Level Vancouver Center
Mon 10:07:10 PM 50.8167 -124.1167 335° Northwest 240 276 20,000  Level Vancouver Center
Mon 10:08:10 PM 50.8667 -124.1500 337° Northwest 230 265 20,000  Level Vancouver Center
Mon 10:09:10 PM 50.9333 -124.2000 335° Northwest 240 276 20,000  Level Vancouver Center
Mon 10:10:10 PM 51.0000 -124.2167 351° North 250 288 20,000  Level Vancouver Center
Mon 10:11:10 PM 51.0500 -124.2833 320° Northwest 230 265 20,000  Level Vancouver Center
Mon 10:12:10 PM 51.1167 -124.3000 351° North 240 276 20,000  Level Vancouver Center
Mon 10:13:10 PM 51.1833 -124.3500 335° Northwest 240 276 20,000  Level Vancouver Center
Mon 10:14:10 PM 51.2333 -124.3833 337° Northwest 240 276 20,000  Level Vancouver Center
Mon 10:15:10 PM 51.3000 -124.4167 343° North 240 276 20,000  Level Vancouver Center
Mon 10:16:10 PM 51.3667 -124.4667 335° Northwest 240 276 20,000  Level Vancouver Center
Mon 10:17:10 PM 51.4167 -124.5000 337° Northwest 230 265 20,000  Level Vancouver Center
Mon 10:18:10 PM 51.4833 -124.5500 335° Northwest 220 253 20,000  Level Vancouver Center
Mon 10:19:10 PM 51.5333 -124.5833 337° Northwest 240 276 20,000  Level Vancouver Center
Mon 10:20:10 PM 51.6000 -124.6333 335° Northwest 240 276 20,000  Level Vancouver Center
Mon 10:21:10 PM 51.6667 -124.6667 343° North 240 276 20,000  Level Vancouver Center
Mon 10:22:10 PM 51.7167 -124.7167 328° Northwest 230 265 20,000  Level Vancouver Center
Mon 10:23:10 PM 51.7833 -124.7500 343° North 230 265 20,000  Level Vancouver Center
Mon 10:24:10 PM 51.8333 -124.8000 328° Northwest 230 265 20,000  Level Vancouver Center
Mon 10:25:10 PM 51.9000 -124.8333 343° North 230 265 20,000  Level Vancouver Center
Mon 10:26:10 PM 51.9667 -124.8500 351° North 240 276 20,000  Level Vancouver Center
Mon 10:27:10 PM 52.0167 -124.9167 321° Northwest 240 276 20,000  Level Vancouver Center
Mon 10:28:10 PM 52.0833 -124.9667 335° Northwest 240 276 20,000  Level Vancouver Center
Mon 10:29:10 PM 52.1500 -125.0000 343° North 240 276 20,000  Level Vancouver Center
Mon 10:30:10 PM 52.2167 -125.0500 335° Northwest 240 276 20,000  Level Vancouver Center
Mon 10:31:10 PM 52.2667 -125.0833 338° Northwest 240 276 20,000  Level Vancouver Center
Mon 10:32:10 PM 52.3333 -125.1167 343° North 240 276 20,000  Level Vancouver Center
Mon 10:33:10 PM 52.4000 -125.1667 335° Northwest 230 265 20,000  Level Vancouver Center
Mon 10:34:10 PM 52.4500 -125.2000 338° Northwest 230 265 20,000  Level Vancouver Center
Mon 10:35:10 PM 52.5167 -125.2500 335° Northwest 240 276 20,000  Level Vancouver Center
Mon 10:36:10 PM 52.5667 -125.2833 338° Northwest 240 276 20,000  Level Vancouver Center
Mon 10:37:10 PM 52.6333 -125.3333 336° Northwest 240 276 20,000  Level Vancouver Center
Mon 10:38:10 PM 52.7000 -125.3667 343° North 240 276 20,000  Level Vancouver Center
Mon 10:39:10 PM 52.7500 -125.4167 329° Northwest 240 276 20,000  Level Vancouver Center
Mon 10:40:10 PM 52.8167 -125.4500 343° North 240 276 20,000  Level Vancouver Center
Mon 10:41:10 PM 52.8833 -125.5167 329° Northwest 240 276 20,000  Level Vancouver Center
Mon 10:42:10 PM 52.9500 -125.5500 343° North 250 288 20,000  Level Vancouver Center
Mon 10:43:10 PM 53.0167 -125.6000 336° Northwest 250 288 20,000  Level Vancouver Center
Mon 10:44:10 PM 53.0667 -125.6333 338° Northwest 250 288 20,000  Level Vancouver Center
Mon 10:45:10 PM 53.1333 -125.6833 336° Northwest 250 288 20,000  Level Vancouver Center
Mon 10:46:10 PM 53.2000 -125.7167 343° North 250 288 20,000  Level Vancouver Center
Mon 10:47:10 PM 53.2667 -125.7833 329° Northwest 250 288 20,000  Level Vancouver Center
Mon 10:48:10 PM 53.3333 -125.8333 336° Northwest 240 276 20,000  Level Vancouver Center
Mon 10:49:10 PM 53.3833 -125.8667 338° Northwest 240 276 20,000  Level Vancouver Center
Mon 10:50:10 PM 53.4500 -125.9333 329° Northwest 240 276 20,000  Level Vancouver Center
Mon 10:51:10 PM 53.5167 -125.9500 352° North 250 288 20,000  Level Vancouver Center
Mon 10:52:10 PM 53.5833 -126.0167 329° Northwest 250 288 20,000 -150 Level Vancouver Center
Mon 10:53:10 PM 53.6333 -126.0500 338° Northwest 250 288 19,700 -450 Descending Vancouver Center
Mon 10:54:10 PM 53.7000 -126.1167 329° Northwest 260 299 19,100 -600 Descending Vancouver Center
Mon 10:55:10 PM 53.7667 -126.1667 336° Northwest 270 311 18,500 -600 Descending Vancouver Center
Mon 10:56:10 PM 53.8333 -126.2000 344° North 270 311 17,900 -650 Descending Vancouver Center
Mon 10:57:10 PM 53.9167 -126.2667 335° Northwest 270 311 17,200 -377 Descending Vancouver Center
Mon 11:03:52 PM 54.3500 -126.6000 322° Northwest 240 276 15,000 -338 Descending Vancouver Center
Mon 11:04:52 PM 54.4167 -126.6333 344° North 250 288 14,600 -1,050 Descending Vancouver Center
Mon 11:05:52 PM 54.4667 -126.7167 316° Northwest 260 299 12,900 -1,700 Descending Vancouver Center
Mon 11:06:00 PM 54.4077 -126.6079 341° North  Level FlightAware Approximate
Mon 11:07:00 PM 54.4615 -126.6505 319° Northwest  Level FlightAware Approximate
Mon 11:07:00 PM 54.5284 -126.7660 335° Northwest  Level FlightAware Approximate
Mon 11:08:00 PM 54.5067 -126.7183 319° Northwest  Level FlightAware Approximate
Mon 11:09:00 PM 54.5521 -126.7861 322° Northwest  Level FlightAware Approximate
Mon 11:14:00 PM 54.8167 -127.1667 330° Northwest  Level FlightAware Approximate
Mon 11:15:00 PM 54.8247 -127.1828 330° Northwest  Level Estimated
Mon 11:16:00 PM 54.8247 -127.1828 330° Northwest  Level Estimated
Mon 11:17:00 PM 54.8247 -127.1828 330° Northwest  Level Estimated
Mon 11:18:00 PM 54.8247 -127.1828 330° Northwest  Level Estimated
Mon 11:19:00 PM 54.8247 -127.1828 330° Northwest  Level Estimated

Login

Don't have an account? Register now (free) for customized features, flight alerts, and more!